Colgate, MT

7:41 PM MST on February 26, 2017 (GMT -0700)
MD8632 | | Change Station
Active Advisory: Areal Flood Watch Active Notice: Areal Flood Watch

Elev 2207 ft 47.04 °N, 104.80 °W | Updated 34 minutes ago

Partly Cloudy
Partly Cloudy
23.0 °F
Feels Like 23 °F
N
0.0
Wind Variable Wind from North
Gusts 0.0 mph

Today
High -- | Low -- °F
--% Chance of Precip.
Yesterday
High -- | Low -- °F
Precip. -- in
Pressure 29.91 in
Visibility 10.0 miles
Clouds Clear
Windchill 23 °F
Dew Point 18 °F
Humidity 82%
Rainfall 0.00 in
Snow Depth Not available.
6:44 AM 5:40 PM
New Moon, 0% visible
METAR KGDV 270156Z AUTO 00000KT 10SM CLR M06/M08 A2979 RMK AO2 SNB0058E08B34E43 SLP126 P0000 T10561078 FZRANO
Pressure 29.91 in
Visibility 10.0 miles
Clouds Clear
Windchill 23 °F
Dew Point 18 °F
Humidity 82%
Rainfall 0.00 in
Snow Depth Not available.
6:44 AM 5:40 PM
New Moon, 0% visible
METAR KGDV 270156Z AUTO 00000KT 10SM CLR M06/M08 A2979 RMK AO2 SNB0058E08B34E43 SLP126 P0000 T10561078 FZRANO

Get Your Daily Forecast Email!

Thanks for signing up!

Be on the lookout for a verification email in your inbox.

You'll start receiving the daily forecast at 8 AM.

×

10-Day Weather Forecast

Almanac

Astronomy

Feb. 26, 2017 Rise Set
Actual Time
Civil Twilight
Nautical Twilight
Astronomical Twilight
Moon
Length of Visible Light
Length of Day
Tomorrow will be .
, % of the Moon is Illuminated

Today's Extremes

State Highs State Lows

Community

WunderPhotos

Upload Photos

1,962,540 photos uploaded!

WunderBlog® & News

Nearby

Air Quality

  Air Quality AQ Index Pollutant
Not available.

Snow Depth

Station Depth Elevation

Earthquake Activity

City Distance Mag. Time & Date
Minimum magnitude displayed is 2.5.

Coastal Water Temperatures

Place Temperature

Stations

Nearby Weather Stations

Station Location Temp. Windchill Dew Point Humidity Wind Precip. Elev Updated Type
                   

Watches & Warnings

Areal Flood Watch
Issued: 12:24 PM MST Feb. 26, 2017 – National Weather Service

... Flood Watch remains in effect through Monday afternoon...

The Flood Watch continues for

* a portion of northeast Montana along the Yellowstone river,
including the following areas, Dawson and Richland counties.

* Through Monday afternoon

* ice is breaking up and flowing along the Yellowstone river,
causing ice jams. Ice jams can bring quickly rising water
levels.


Precautionary/preparedness actions...

A Flood Watch means there is a potential for flooding based on
current forecasts.

You should monitor later forecasts and be alert for possible
flood warnings. Those living in areas prone to flooding should be
prepared to take action should flooding develop.